Latest Weather Observations for Cooma Airport

IDN60901

Issued at 3:51 am EST Wednesday 5 August 2015 (issued every 10 minutes, with the page automatically refreshed every 10 minutes)

About weather observations | Map of Canberra area stations | Latest observations for Canberra area | Other Formats
Station Details ID: 070217 Name: COOMA AIRPORT AWS Lat: -36.29 Lon: 148.97 Height: 930.0 m
Data from the previous 72 hours. | See also: Recent months at Cooma Airport
Date/Time
EST
Tmp

°C
App
Tmp
°C
Dew
Point
°C
Rel
Hum
%
Delta-T

°C
Wind Press
QNH
hPa
Press
MSL
hPa
Rain
since
9 am
mm
Dir
 
Spd
km/h
Gust
km/h
Spd
kts
Gust
kts
05/03:30am 1.3 -4.8 -3.6 70 1.8 WNW 19 26 10 14 1010.6 1011.7 0.2
05/03:00am 1.2 -4.9 -4.0 68 1.9 WNW 19 28 10 15 1011.2 1012.2 0.2
05/02:30am 0.9 -4.9 -4.5 67 1.9 WNW 17 26 9 14 1011.7 1012.8 0.2
05/02:00am 0.5 -5.3 -4.9 67 1.9 NW 17 30 9 16 1012.3 1013.3 0.2
05/01:30am 0.1 -5.0 -4.9 69 1.7 WNW 13 20 7 11 1012.7 1013.8 0.2
05/01:00am -0.8 -5.6 -5.8 69 1.6 NW 11 15 6 8 1013.4 1014.5 0.2
05/12:30am -0.6 -5.0 -5.6 69 1.6 NE 9 13 5 7 1013.8 1014.9 0.2
05/12:00am -0.9 -4.7 -5.7 70 1.5 SW 6 13 3 7 1014.0 1015.1 0.2
 
Date/Time
EST
Tmp

°C
App
Tmp
°C
Dew
Point
°C
Rel
Hum
%
Delta-T

°C
Wind Press
QNH
hPa
Press
MSL
hPa
Rain
since
9 am
mm
Dir
 
Spd
km/h
Gust
km/h
Spd
kts
Gust
kts
04/11:30pm -0.5 -6.0 -5.5 69 1.6 WNW 15 28 8 15 1014.0 1015.1 0.2
04/11:00pm -0.7 -5.5 -5.7 69 1.6 NNE 11 17 6 9 1014.0 1015.1 0.2
04/10:30pm -0.8 -8.0 -5.6 70 1.5 WNW 24 35 13 19 1014.4 1015.5 0.2
04/10:00pm -0.5 -8.9 -5.5 69 1.6 WNW 30 41 16 22 1014.7 1015.8 0.2
04/09:30pm -0.6 -8.6 -5.6 69 1.6 WNW 28 41 15 22 1014.9 1016.0 0.2
04/09:00pm -0.3 -7.9 -5.1 70 1.6 WNW 26 37 14 20 1014.9 1016.0 0.2
04/08:30pm -0.5 -6.7 -5.1 71 1.5 NW 19 26 10 14 1014.8 1015.9 0.2
04/08:00pm -0.5 -7.0 -5.5 69 1.6 WNW 20 32 11 17 1015.0 1016.1 0.2
04/07:30pm -0.2 -7.8 -5.4 68 1.7 WNW 26 35 14 19 1015.1 1016.2 0.2
04/07:00pm 0.1 -7.1 -5.1 68 1.8 WNW 24 37 13 20 1015.2 1016.4 0.2
04/06:30pm 0.1 -6.4 -5.5 66 1.9 WNW 20 30 11 16 1015.3 1016.5 0.2
04/06:00pm 0.5 -6.0 -5.9 62 2.2 WNW 20 30 11 16 1015.5 1016.6 0.2
04/05:30pm 1.2 -6.1 -6.1 58 2.5 WNW 24 35 13 19 1015.2 1016.4 0.2
04/05:00pm 2.7 -4.2 -6.4 51 3.2 WNW 22 32 12 17 1015.1 1016.2 0.2
04/04:30pm 4.1 -2.9 -7.3 43 3.8 WNW 22 32 12 17 1015.0 1016.1 0.2
04/04:00pm 6.3 -0.6 -6.0 41 4.4 NW 22 33 12 18 1014.8 1015.9 0.2
04/03:30pm 6.2 -0.2 -5.4 43 4.2 NNW 20 26 11 14 1015.0 1016.1 0.2
04/03:00pm 7.1 2.0 -4.9 42 4.4 NW 13 20 7 11 1015.3 1016.5 0.2
04/02:30pm 6.9 1.9 -4.2 45 4.1 NE 13 20 7 11 1015.5 1016.6 0.2
04/02:00pm 6.3 1.7 -4.2 47 3.9 ENE 11 20 6 11 1015.9 1017.0 0.2
04/01:30pm 6.2 1.5 -4.8 45 4.0 NE 11 17 6 9 1016.3 1017.5 0.2
04/01:00pm 5.5 1.9 -3.8 51 3.4 NNE 6 11 3 6 1016.9 1018.0 0.2
04/12:30pm 4.9 1.5 -2.2 60 2.7 ENE 6 13 3 7 1017.6 1018.8 0.2
04/12:00pm 3.8 -0.4 -4.2 56 2.9 E 9 11 5 6 1018.2 1019.4 0.2
04/11:30am 3.4 -0.9 -4.5 56 2.8 NE 9 15 5 8 1018.7 1019.9 0.2
04/11:00am 2.5 -1.4 -4.9 58 2.7 NW 7 11 4 6 1019.3 1020.5 0.2
04/10:30am 1.5 -3.2 -5.2 61 2.4 S 11 13 6 7 1019.6 1020.8 0.0
04/10:00am 1.0 -2.9 -4.8 65 2.0 SSE 7 11 4 6 1019.6 1020.8 0.0
04/09:30am 0.4 -3.4 -3.9 73 1.5 SSE 7 11 4 6 1019.7 1020.9 0.0
04/09:00am -1.0 -3.9 -3.8 81 0.9 SSE 2 7 1 4 1020.0 1021.3 0.0
04/08:30am -3.4 -6.0 -4.9 89 0.3 CALM 0 0 0 0 1020.2 1021.4 0.0
04/08:00am -6.1 -8.9 -7.2 92 0.1 CALM 0 0 0 0 1020.5 1021.7 0.0
04/07:30am -8.0 -11.0 -9.3 90 0.1 CALM 0 0 0 0 1020.4 1021.6 0.0
04/07:00am -9.4 -12.5 -10.9 89 0.1 CALM 0 0 0 0 1020.4 1021.6 0.0
04/06:30am -9.0 -12.1 -10.3 90 0.0 CALM 0 0 0 0 1020.3 1021.5 0.0
04/06:00am -9.1 -12.2 -10.6 89 0.1 CALM 0 0 0 0 1020.2 1021.4 0.0
04/05:30am -9.1 -12.2 -10.9 87 0.2 CALM 0 0 0 0 1020.0 1021.3 0.0
04/05:00am -8.2 -12.0 -9.4 91 0.0 N 4 7 2 4 1020.0 1021.3 0.0
04/04:30am -7.9 -10.9 -9.2 90 0.1 CALM 0 0 0 0 1019.9 1021.2 0.0
04/04:00am -8.1 -11.1 -9.0 93 0.0 CALM 0 0 0 0 1019.8 1021.1 0.0
04/03:30am -8.3 -11.3 -9.5 91 0.0 CALM 0 0 0 0 1020.0 1021.3 0.0
04/03:00am -7.7 -10.6 -8.6 93 0.0 CALM 0 0 0 0 1020.0 1021.3 0.0
04/02:30am -7.9 -10.9 -9.0 92 0.0 CALM 0 0 0 0 1020.2 1021.4 0.0
04/02:00am -8.2 -11.2 -9.7 89 0.1 CALM 0 0 0 0 1020.0 1021.3 0.0
04/01:30am -7.4 -10.4 -8.8 90 0.1 CALM 0 6 0 3 1020.4 1021.6 0.0
04/01:00am -6.9 -9.8 -8.3 90 0.1 CALM 0 6 0 3 1020.3 1021.5 0.0
04/12:30am -6.1 -10.3 -7.2 92 0.1 ESE 7 9 4 5 1020.0 1021.3 0.0
04/12:00am -6.2 -10.2 -7.6 90 0.2 NNW 6 9 3 5 1020.0 1021.3 0.0
 
Date/Time
EST
Tmp

°C
App
Tmp
°C
Dew
Point
°C
Rel
Hum
%
Delta-T

°C
Wind Press
QNH
hPa
Press
MSL
hPa
Rain
since
9 am
mm
Dir
 
Spd
km/h
Gust
km/h
Spd
kts
Gust
kts
03/11:30pm -4.9 -8.0 -5.7 94 0.1 N 2 7 1 4 1019.8 1021.1 0.0
03/11:00pm -4.7 -8.5 -5.7 93 0.1 NNE 6 7 3 4 1019.7 1020.9 0.0
03/10:30pm -4.4 -8.3 -6.5 85 0.5 WNW 6 9 3 5 1019.8 1021.1 0.0
03/10:00pm -3.0 -7.3 -4.7 88 0.4 SW 9 13 5 7 1019.7 1020.9 0.0
03/09:30pm -1.9 -6.8 -3.3 90 0.4 WSW 13 17 7 9 1019.5 1020.7 0.0
03/09:00pm -2.1 -7.0 -3.4 91 0.4 SW 13 19 7 10 1019.2 1020.4 0.0
03/08:30pm -0.6 -4.6 -2.0 90 0.5 WSW 9 13 5 7 1018.8 1020.1 0.0
03/08:00pm -0.4 -4.6 -1.2 94 0.3 SW 11 15 6 8 1018.5 1019.7 0.0
03/07:30pm -0.3 -4.6 -1.3 93 0.4 WSW 11 13 6 7 1018.3 1019.5 0.0
03/07:00pm -0.6 -3.5 -1.3 95 0.2 SSW 4 11 2 6 1018.0 1019.2 0.0
03/06:30pm -0.8 -4.7 -1.4 96 0.2 SW 9 13 5 7 1017.4 1018.6 0.0
03/06:00pm -0.5 -5.1 -1.2 95 0.2 SW 13 17 7 9 1016.9 1018.0 0.0
03/05:45pm -0.4 -5.4 -1.4 93 0.4 SW 15 20 8 11 1016.4 1017.6 0.0
03/05:30pm 0.4 -4.9 -0.7 92 0.4 SSW 17 22 9 12 1016.1 1017.3 0.0
03/05:21pm 0.9 -4.4 -0.5 90 0.5 SSW 17 20 9 11 1016.0 1017.1 0.0
03/05:00pm 1.8 -4.4 -0.6 84 0.9 SSW 22 30 12 16 1015.7 1016.8 0.0
03/04:30pm 3.0 -3.2 -0.1 80 1.2 SSW 22 30 12 16 1014.6 1015.7 0.0
03/04:20pm 3.1 -4.6 -0.2 79 1.3 SSW 30 43 16 23 1014.5 1015.6 0.0
03/04:00pm 3.4 -3.9 -0.1 78 1.4 SSW 28 37 15 20 1013.8 1014.9 0.0
03/03:58pm 3.7 -3.2 0.4 79 1.3 S 26 37 14 20 1013.9 1015.0 0.0
03/03:36pm 2.9 -4.8 -0.2 80 1.2 SSE 30 39 16 21 1013.6 1014.7 0.0
03/03:30pm 3.2 -4.5 -0.1 79 1.3 SSE 30 39 16 21 1013.4 1014.5 0.0
03/03:09pm 4.4 -3.8 -0.8 69 2.1 SSW 32 43 17 23 1012.8 1013.9 0.0
03/03:00pm 7.5 -1.1 -2.5 49 3.9 WSW 33 43 18 23 1012.5 1013.6 0.0
03/02:30pm 8.8 1.5 -3.1 43 4.7 W 26 33 14 18 1011.8 1012.9 0.0
03/02:00pm 9.4 2.8 -3.5 40 5.0 WSW 22 33 12 18 1011.6 1012.7 0.0
03/01:30pm 9.3 1.6 -3.3 41 4.9 WSW 28 39 15 21 1011.4 1012.4 0.0
03/01:00pm 9.0 0.6 -2.6 44 4.6 WSW 32 46 17 25 1011.0 1012.0 0.0
03/12:30pm 9.9 3.9 -1.5 45 4.7 W 20 32 11 17 1010.9 1011.9 0.0
03/12:00pm 8.4 0.1 -2.0 48 4.2 W 32 41 17 22 1011.0 1012.0 0.0
03/11:30am 8.4 0.4 -2.5 46 4.3 WNW 30 43 16 23 1011.1 1012.1 0.0
03/11:00am 7.7 -1.2 -2.3 49 4.0 W 35 46 19 25 1011.3 1012.3 0.0
03/10:30am 8.1 0.1 -2.0 49 4.0 W 30 43 16 23 1011.3 1012.3 0.0
03/10:00am 7.7 0.5 -2.0 50 3.9 WNW 26 39 14 21 1010.9 1011.9 0.0
03/09:39am 7.5 -0.1 -2.2 50 3.8 WNW 28 48 15 26 1010.7 1011.8 0.0
03/09:30am 7.4 -0.1 -1.5 53 3.6 WNW 28 39 15 21 1010.9 1011.9 0.0
03/09:00am 7.0 -0.7 -2.7 50 3.8 WNW 28 48 15 26 1010.9 1011.9 1.0
03/08:30am 6.4 -0.4 -2.0 55 3.3 WNW 24 37 13 20 1010.9 1011.9 1.0
03/08:00am 5.7 0.1 -2.9 54 3.3 WNW 17 30 9 16 1010.6 1011.7 1.0
03/07:30am 4.8 0.0 -2.7 58 2.8 WNW 13 28 7 15 1010.3 1011.3 1.0
03/07:00am 4.0 -2.5 -2.8 61 2.5 W 22 39 12 21 1010.2 1011.2 1.0
03/06:38am 4.4 -3.3 -2.9 59 2.7 WNW 28 56 15 30 1009.7 1010.6 1.0
03/06:37am 4.6 -3.1 -2.9 58 2.8 WNW 28 56 15 30 1009.5 1010.5 1.0
03/06:30am 4.4 -1.2 -2.7 60 2.7 WNW 17 37 9 20 1009.5 1010.5 1.0
03/06:00am 4.7 -2.9 -2.4 60 2.7 WNW 28 44 15 24 1008.8 1009.8 1.0
03/05:39am 5.2 -2.4 -2.1 59 2.8 WNW 28 50 15 27 1008.6 1009.5 1.0
03/05:30am 5.0 -2.2 -2.1 60 2.7 WNW 26 43 14 23 1008.6 1009.5 1.0
03/05:00am 4.8 -2.4 -2.1 61 2.7 WNW 26 44 14 24 1008.7 1009.6 1.0
03/04:30am 4.1 0.1 -2.5 62 2.5 NW 9 13 5 7 1009.1 1010.1 1.0
03/04:00am 4.3 0.3 -2.1 63 2.4 NW 9 22 5 12 1009.1 1010.1 1.0
03/03:30am 4.3 -0.4 -2.1 63 2.4 NW 13 22 7 12 1009.4 1010.4 1.0
03/03:00am 5.1 0.4 -2.0 60 2.7 NNW 13 26 7 14 1009.8 1010.8 1.0
03/02:30am 5.3 -0.7 -1.6 61 2.7 WNW 20 43 11 23 1010.2 1011.2 1.0
03/02:00am 5.6 -0.3 -1.1 62 2.7 WNW 20 39 11 21 1010.0 1011.0 1.0
03/01:30am 5.7 -0.3 -1.2 61 2.7 NW 20 39 11 21 1010.5 1011.5 1.0
03/01:00am 5.1 -0.3 -1.1 64 2.5 WNW 17 33 9 18 1011.2 1012.2 1.0
03/12:39am 5.1 -2.4 -1.1 64 2.4 WNW 28 50 15 27 1011.3 1012.3 1.0
03/12:30am 4.9 -2.9 -1.1 65 2.4 WNW 30 41 16 22 1011.3 1012.3 1.0
03/12:00am 4.7 -3.2 -1.7 63 2.5 WNW 30 48 16 26 1011.3 1012.3 1.0
 
Date/Time
EST
Tmp

°C
App
Tmp
°C
Dew
Point
°C
Rel
Hum
%
Delta-T

°C
Wind Press
QNH
hPa
Press
MSL
hPa
Rain
since
9 am
mm
Dir
 
Spd
km/h
Gust
km/h
Spd
kts
Gust
kts
02/11:38pm 5.0 -2.5 -1.4 63 2.5 NW 28 46 15 25 1011.5 1012.6 1.0
02/11:30pm 4.6 -2.6 -1.8 63 2.5 NW 26 41 14 22 1011.4 1012.4 1.0
02/11:00pm 4.4 -4.2 -2.2 62 2.5 WNW 33 54 18 29 1011.8 1012.9 1.0
02/10:34pm 4.4 -2.8 -2.4 61 2.6 WNW 26 48 14 26 1011.7 1012.8 1.0
02/10:30pm 4.0 -1.9 -2.6 62 2.5 WNW 19 39 10 21 1011.8 1012.9 1.0
02/10:27pm 4.0 -0.8 -2.4 63 2.4 W 13 39 7 21 1011.8 1012.9 1.0
02/10:00pm 3.6 -0.1 -2.8 63 2.4 W 7 15 4 8 1012.5 1013.6 1.0
02/09:30pm 2.7 -1.8 -3.0 66 2.1 N 11 19 6 10 1012.5 1013.6 1.0
02/09:00pm 2.3 -3.4 -3.4 66 2.1 NNE 17 20 9 11 1012.7 1013.8 1.0
02/08:30pm 3.3 -1.6 -3.1 63 2.3 NW 13 24 7 13 1012.9 1014.0 1.0
02/08:00pm 3.3 -1.6 -3.1 63 2.4 NW 13 20 7 11 1012.8 1013.9 1.0
02/07:30pm 3.7 -1.5 -2.9 62 2.4 NNW 15 33 8 18 1012.5 1013.6 1.0
02/07:00pm 3.9 -2.1 -3.1 60 2.6 NW 19 28 10 15 1011.7 1012.8 1.0
02/06:30pm 4.2 -2.8 -3.3 58 2.8 NW 24 35 13 19 1011.6 1012.7 1.0
02/06:00pm 5.0 -1.2 -3.3 55 3.1 NW 20 35 11 19 1011.5 1012.6 1.0
02/05:30pm 5.6 0.0 -2.7 55 3.2 WNW 17 28 9 15 1010.9 1011.9 1.0
02/05:05pm 6.4 -2.1 -2.0 55 3.3 WNW 33 52 18 28 1010.2 1011.2 1.0
02/05:00pm 6.6 -2.3 -2.3 53 3.5 WNW 35 52 19 28 1010.1 1011.1 1.0
02/04:38pm 7.4 -0.1 -1.3 54 3.5 WNW 28 46 15 25 1009.8 1010.8 1.0
02/04:30pm 7.7 1.4 -1.0 54 3.5 WNW 22 33 12 18 1009.9 1010.9 1.0
02/04:00pm 8.8 3.6 0.0 54 3.7 NW 17 26 9 14 1009.9 1010.9 1.0
02/03:30pm 9.4 4.1 2.0 60 3.3 WNW 19 28 10 15 1009.4 1010.4 1.0
02/03:00pm 9.7 2.9 3.2 64 3.0 WNW 28 43 15 23 1009.3 1010.3 1.0
02/02:41pm 9.8 3.1 3.5 65 2.9 WNW 28 46 15 25 1008.8 1009.8 1.0
02/02:30pm 9.6 1.9 3.4 65 2.8 WNW 33 50 18 27 1008.8 1009.8 1.0
02/02:02pm 9.6 2.4 3.1 64 3.0 W 30 54 16 29 1008.9 1009.9 1.0
02/02:00pm 10.4 3.9 4.5 67 2.8 W 28 41 15 22 1008.8 1009.8 1.0
02/01:30pm 9.8 3.8 5.2 73 2.2 WNW 26 41 14 22 1008.8 1009.8 1.0
02/01:00pm 9.1 4.3 5.5 78 1.7 WNW 20 30 11 16 1009.0 1010.0 1.0
02/12:30pm 9.2 5.3 7.0 86 1.1 NW 17 24 9 13 1008.7 1009.6 1.0
02/12:00pm 8.5 4.4 6.1 85 1.2 NW 17 26 9 14 1009.5 1010.5 0.8
02/11:30am 9.1 2.8 5.7 79 1.6 NW 28 43 15 23 1010.4 1011.4 0.4
02/11:14am 9.6 3.5 6.5 81 1.5 NW 28 46 15 25 1010.2 1011.2 0.2
02/11:00am 10.0 5.0 6.3 78 1.8 NW 22 35 12 19 1009.7 1010.6 0.2
02/10:30am 11.0 5.7 6.9 76 2.1 NW 24 41 13 22 1010.0 1011.0 0.2
02/10:00am 10.3 3.8 6.5 77 1.9 NW 30 48 16 26 1010.4 1011.4 0.2
02/09:30am 9.9 2.4 6.1 77 1.9 NW 35 54 19 29 1010.6 1011.7 0.0
02/09:00am 10.6 3.3 4.7 67 2.8 NW 32 50 17 27 1010.5 1011.5 0.2
02/08:51am 10.8 4.3 4.9 67 2.8 NW 28 46 15 25 1010.5 1011.5 0.2
02/08:30am 10.6 5.0 5.2 69 2.6 NW 24 37 13 20 1010.7 1011.8 0.2
02/08:00am 9.8 4.1 5.0 72 2.3 NW 24 35 13 19 1010.5 1011.5 0.2
02/07:30am 8.6 3.6 4.8 77 1.8 NW 20 35 11 19 1011.0 1012.0 0.2
02/07:00am 8.5 3.7 4.9 78 1.7 NNW 19 30 10 16 1010.7 1011.8 0.2
02/06:30am 8.8 2.4 5.0 77 1.8 NW 28 48 15 26 1011.0 1012.0 0.2
02/06:29am 8.9 2.1 5.1 77 1.8 NW 30 48 16 26 1011.0 1012.0 0.2
02/06:00am 8.8 2.8 5.5 80 1.6 NNW 26 39 14 21 1011.0 1012.0 0.2
02/05:30am 8.8 2.5 5.5 80 1.6 NNW 28 37 15 20 1011.4 1012.4 0.2
02/05:00am 8.3 3.1 5.6 83 1.3 NNW 22 33 12 18 1011.7 1012.8 0.2
02/04:30am 7.9 3.6 5.4 84 1.2 NNW 17 28 9 15 1012.6 1013.7 0.2
02/04:00am 7.8 3.5 5.1 83 1.3 NNW 17 28 9 15 1012.6 1013.7 0.2

Latest Capital City Observations: Canberra | Sydney | Melbourne | Brisbane | Adelaide | Perth | Hobart | Darwin

Other Formats:

Comma delimited format used in spreadsheet applications
http://www.bom.gov.au/fwo/IDN60903/IDN60903.94921.axf

JavaScript Object Notation format (JSON) in row-major order
http://www.bom.gov.au/fwo/IDN60903/IDN60903.94921.json